Time;durP1;ratioP1;P1;durP2;ratioP2;P2;SDS_P1;SDS_P2;PMS_P1;PMS_P2;Temp;Humidity;BMP_temperature;BMP_pressure;BME280_temperature;BME280_humidity;BME280_pressure;Samples;Min_cycle;Max_cycle;Signal;HPM_P1;HPM_P2
2022/11/13 00:01:48;;;;;;;31.90;19.80;;;4.80;92.20;;;;;;5074085;28;20545;-88
2022/11/13 00:04:13;;;;;;;31.37;20.40;;;4.90;92.30;;;;;;5074073;28;20185;-87
2022/11/13 00:06:39;;;;;;;32.67;20.37;;;5.00;92.40;;;;;;5074018;28;20178;-87
2022/11/13 00:09:04;;;;;;;31.70;19.57;;;5.00;92.50;;;;;;5073945;28;20178;-87
2022/11/13 00:11:31;;;;;;;31.33;20.03;;;5.00;92.50;;;;;;5075109;28;20182;-87
2022/11/13 00:13:56;;;;;;;30.70;20.20;;;5.00;92.60;;;;;;5074163;28;20582;-88
2022/11/13 00:16:22;;;;;;;33.97;20.50;;;5.10;92.70;;;;;;5073804;28;20230;-87
2022/11/13 00:18:50;;;;;;;36.63;21.80;;;5.10;92.70;;;;;;5073873;28;20692;-87
2022/11/13 00:21:22;;;;;;;29.23;19.57;;;5.00;92.70;;;;;;5074149;28;20647;-88
2022/11/13 00:23:48;;;;;;;30.63;21.77;;;4.90;92.70;;;;;;5073841;28;20170;-89
2022/11/13 00:26:16;;;;;;;33.27;19.17;;;4.80;92.70;;;;;;5073675;28;20321;-89
2022/11/13 00:28:42;;;;;;;24.97;19.17;;;4.70;92.60;;;;;;5073753;28;20276;-89
2022/11/13 00:31:09;;;;;;;32.33;19.87;;;4.60;92.70;;;;;;5073668;28;20669;-90
2022/11/13 00:33:35;;;;;;;26.67;20.17;;;4.50;92.70;;;;;;5074892;28;20194;-89
2022/11/13 00:36:02;;;;;;;33.73;19.43;;;4.50;92.80;;;;;;5073821;28;20209;-88
2022/11/13 00:38:28;;;;;;;27.33;18.43;;;4.40;92.70;;;;;;5073222;28;20208;-87
2022/11/13 00:40:53;;;;;;;29.47;19.57;;;4.30;92.70;;;;;;5072897;28;20174;-87
2022/11/13 00:43:19;;;;;;;24.97;18.57;;;4.30;92.80;;;;;;5072797;28;20205;-87
2022/11/13 00:45:44;;;;;;;23.43;17.70;;;4.30;92.90;;;;;;5073125;28;20202;-87
2022/11/13 00:48:10;;;;;;;25.53;18.63;;;4.40;93.00;;;;;;5074320;28;20181;-87
2022/11/13 00:50:35;;;;;;;24.37;19.13;;;4.50;93.10;;;;;;5073079;28;20178;-87
2022/11/13 00:53:01;;;;;;;26.50;19.77;;;4.40;93.00;;;;;;5072936;28;20209;-87
2022/11/13 00:55:27;;;;;;;29.97;18.17;;;4.30;93.10;;;;;;5072849;28;20205;-87
2022/11/13 00:57:52;;;;;;;27.40;17.57;;;4.40;93.10;;;;;;5072826;28;20214;-87
2022/11/13 01:00:18;;;;;;;22.30;17.13;;;4.40;93.20;;;;;;5072931;28;20652;-87
2022/11/13 01:02:43;;;;;;;27.77;18.97;;;4.30;93.20;;;;;;5074017;28;20205;-87
2022/11/13 01:05:09;;;;;;;24.83;17.57;;;4.30;93.20;;;;;;5072702;28;20196;-87
2022/11/13 01:07:36;;;;;;;23.67;17.20;;;4.40;93.30;;;;;;5072705;28;20230;-87
2022/11/13 01:10:04;;;;;;;25.43;17.10;;;4.40;93.20;;;;;;5073357;28;20252;-87
2022/11/13 01:12:30;;;;;;;23.50;18.43;;;4.40;93.20;;;;;;5072687;28;20182;-87
2022/11/13 01:14:55;;;;;;;22.93;17.63;;;4.40;93.20;;;;;;5074101;28;20222;-87
2022/11/13 01:17:21;;;;;;;25.63;17.90;;;4.40;93.20;;;;;;5072437;28;20287;-88
2022/11/13 01:19:47;;;;;;;26.53;18.33;;;4.30;93.10;;;;;;5072655;28;20177;-87
2022/11/13 01:22:12;;;;;;;24.87;17.60;;;4.30;93.10;;;;;;5072397;28;20185;-87
2022/11/13 01:24:38;;;;;;;23.97;17.27;;;4.30;93.10;;;;;;5073623;28;20252;-87
2022/11/13 01:27:04;;;;;;;23.60;17.90;;;4.10;93.00;;;;;;5073659;28;20206;-87
2022/11/13 01:29:29;;;;;;;21.37;16.77;;;4.00;93.00;;;;;;5072483;28;20176;-87
2022/11/13 01:31:55;;;;;;;23.37;16.10;;;4.00;93.00;;;;;;5072584;28;20169;-87
2022/11/13 01:34:20;;;;;;;23.00;18.17;;;4.00;93.00;;;;;;5072222;28;20196;-87
2022/11/13 01:36:46;;;;;;;22.93;18.03;;;4.00;93.00;;;;;;5073525;28;20172;-88
2022/11/13 01:39:12;;;;;;;30.43;18.70;;;4.00;93.00;;;;;;5072299;28;20173;-87
2022/11/13 01:41:38;;;;;;;37.43;19.40;;;4.00;93.10;;;;;;5072267;28;20188;-87
2022/11/13 01:44:05;;;;;;;25.07;18.87;;;4.20;93.20;;;;;;5072125;28;20164;-87
2022/11/13 01:46:37;;;;;;;24.17;19.33;;;4.20;93.20;;;;;;5072276;28;20605;-87
2022/11/13 01:49:19;;;;;;;30.30;17.80;;;4.30;93.30;;;;;;5072528;28;20233;-88
2022/11/13 01:51:53;;;;;;;24.83;18.47;;;4.30;93.40;;;;;;5073561;28;20181;-87
2022/11/13 01:54:24;;;;;;;25.33;19.37;;;4.40;93.40;;;;;;5073612;28;20728;-87
2022/11/13 01:56:51;;;;;;;24.53;19.60;;;4.40;93.50;;;;;;5072259;28;20665;-87
2022/11/13 01:59:20;;;;;;;27.43;19.20;;;4.40;93.50;;;;;;5072167;28;20225;-87
2022/11/13 02:01:45;;;;;;;26.53;18.67;;;4.50;93.60;;;;;;5072278;28;20172;-87
2022/11/13 02:04:11;;;;;;;26.83;19.93;;;4.50;93.60;;;;;;5072345;28;20183;-87
2022/11/13 02:06:47;;;;;;;24.27;19.40;;;4.50;93.50;;;;;;5073305;28;20550;-87
2022/11/13 02:09:14;;;;;;;22.80;17.07;;;4.50;93.50;;;;;;5072576;28;20521;-87
2022/11/13 02:11:40;;;;;;;23.93;18.33;;;4.40;93.50;;;;;;5072011;28;20175;-87
2022/11/13 02:14:07;;;;;;;23.53;17.10;;;4.40;93.50;;;;;;5073036;28;20170;-87
2022/11/13 02:16:34;;;;;;;23.63;17.30;;;4.30;93.40;;;;;;5071854;28;20174;-87
2022/11/13 02:19:04;;;;;;;24.53;17.70;;;4.20;93.30;;;;;;5071852;28;20201;-87
2022/11/13 02:21:36;;;;;;;23.57;17.83;;;4.20;93.40;;;;;;5073269;28;20156;-87
2022/11/13 02:24:25;;;;;;;24.63;17.07;;;4.20;93.40;;;;;;5073124;28;20531;-87
2022/11/13 02:26:54;;;;;;;24.67;18.67;;;4.20;93.40;;;;;;5071861;28;20173;-87
2022/11/13 02:29:19;;;;;;;25.50;18.43;;;4.20;93.40;;;;;;5071910;28;20206;-87
2022/11/13 02:31:45;;;;;;;26.53;18.37;;;4.20;93.40;;;;;;5071734;28;20165;-88
2022/11/13 02:34:10;;;;;;;27.40;18.83;;;4.30;93.40;;;;;;5071670;28;20205;-88
2022/11/13 02:36:36;;;;;;;23.73;17.87;;;4.30;93.40;;;;;;5072925;28;20254;-87
2022/11/13 02:39:08;;;;;;;26.37;19.20;;;4.30;93.40;;;;;;5071651;28;20205;-87
2022/11/13 02:41:33;;;;;;;28.77;19.27;;;4.30;93.40;;;;;;5072906;28;20238;-87
2022/11/13 02:43:59;;;;;;;27.63;19.87;;;4.30;93.40;;;;;;5071545;28;20269;-87
2022/11/13 02:46:24;;;;;;;26.80;19.57;;;4.40;93.40;;;;;;5071498;28;20174;-87
2022/11/13 02:48:50;;;;;;;30.60;19.83;;;4.30;93.30;;;;;;5071791;28;20181;-87
2022/11/13 02:51:15;;;;;;;34.57;22.23;;;4.30;93.30;;;;;;5071376;28;20268;-87
2022/11/13 02:53:41;;;;;;;35.40;23.27;;;4.30;93.30;;;;;;5071670;28;20248;-87
2022/11/13 02:56:06;;;;;;;33.93;22.77;;;4.20;93.30;;;;;;5072611;28;20201;-87
2022/11/13 02:58:32;;;;;;;33.10;23.23;;;4.20;93.30;;;;;;5072522;28;20203;-87
2022/11/13 03:01:01;;;;;;;37.57;23.43;;;4.20;93.30;;;;;;5071371;28;20186;-87
2022/11/13 03:03:27;;;;;;;37.33;24.93;;;4.10;93.30;;;;;;5072624;28;20242;-87
2022/11/13 03:05:52;;;;;;;37.93;24.87;;;4.10;93.40;;;;;;5073697;28;20214;-87
2022/11/13 03:08:18;;;;;;;29.53;21.67;;;4.10;93.40;;;;;;5075248;28;20177;-87
2022/11/13 03:10:44;;;;;;;35.70;22.03;;;4.00;93.40;;;;;;5076124;28;20171;-87
2022/11/13 03:13:10;;;;;;;31.47;21.50;;;4.00;93.40;;;;;;5074888;28;20176;-87
2022/11/13 03:15:35;;;;;;;29.33;22.10;;;4.00;93.50;;;;;;5076092;28;20191;-87
2022/11/13 03:18:05;;;;;;;37.00;22.97;;;4.00;93.50;;;;;;5074712;28;20222;-87
2022/11/13 03:20:32;;;;;;;31.37;21.90;;;4.00;93.60;;;;;;5074860;28;20179;-87
2022/11/13 03:22:57;;;;;;;32.13;20.60;;;4.10;93.60;;;;;;5075969;28;20218;-88
2022/11/13 03:25:23;;;;;;;32.67;21.17;;;4.10;93.60;;;;;;5075854;28;20192;-88
2022/11/13 03:27:48;;;;;;;28.93;21.47;;;4.00;93.60;;;;;;5074548;28;20521;-87
2022/11/13 03:30:14;;;;;;;31.07;21.77;;;4.00;93.70;;;;;;5075839;28;20179;-87
2022/11/13 03:32:39;;;;;;;33.67;20.73;;;4.00;93.70;;;;;;5074569;28;20219;-87
2022/11/13 03:35:05;;;;;;;29.63;21.97;;;4.00;93.70;;;;;;5074460;28;20204;-87
2022/11/13 03:37:31;;;;;;;27.63;20.83;;;4.00;93.70;;;;;;5074287;28;20208;-87
2022/11/13 03:39:56;;;;;;;34.00;21.53;;;4.00;93.70;;;;;;5076257;28;20186;-87
2022/11/13 03:42:22;;;;;;;26.70;20.83;;;4.00;93.80;;;;;;5074341;28;20227;-88
2022/11/13 03:44:47;;;;;;;36.70;22.57;;;4.00;93.70;;;;;;5074203;28;20204;-87
2022/11/13 03:47:14;;;;;;;30.40;21.50;;;3.90;93.80;;;;;;5074284;28;20186;-87
2022/11/13 03:49:39;;;;;;;30.03;21.30;;;3.90;93.80;;;;;;5074342;28;20657;-87
2022/11/13 03:52:05;;;;;;;31.90;22.13;;;3.90;93.70;;;;;;5074341;28;20233;-87
2022/11/13 03:54:30;;;;;;;30.37;21.87;;;3.80;93.80;;;;;;5075249;28;20200;-87
2022/11/13 03:56:56;;;;;;;34.63;22.30;;;3.80;93.70;;;;;;5073813;28;20191;-87
2022/11/13 03:59:22;;;;;;;33.20;23.37;;;3.70;93.70;;;;;;5074077;28;20166;-87
2022/11/13 04:01:47;;;;;;;33.37;23.10;;;3.50;93.70;;;;;;5075179;28;20175;-87
2022/11/13 04:04:14;;;;;;;35.23;25.57;;;3.50;93.70;;;;;;5073939;28;20182;-87
2022/11/13 04:06:39;;;;;;;38.90;24.63;;;3.50;93.80;;;;;;5074005;28;20180;-87
2022/11/13 04:09:05;;;;;;;37.63;23.27;;;3.50;93.80;;;;;;5075055;28;20309;-87
2022/11/13 04:11:31;;;;;;;35.47;23.77;;;3.50;93.80;;;;;;5074490;28;20219;-87
2022/11/13 04:13:56;;;;;;;36.00;24.27;;;3.50;93.90;;;;;;5074866;28;20232;-87
2022/11/13 04:16:22;;;;;;;45.30;24.93;;;3.40;93.80;;;;;;5074888;28;20175;-87
2022/11/13 04:18:47;;;;;;;42.47;25.07;;;3.30;93.80;;;;;;5073606;28;20206;-87
2022/11/13 04:21:13;;;;;;;36.77;25.00;;;3.30;93.80;;;;;;5074833;28;20633;-87
2022/11/13 04:23:38;;;;;;;32.83;24.10;;;3.20;93.80;;;;;;5074704;28;20175;-87
2022/11/13 04:26:04;;;;;;;34.47;23.70;;;3.20;93.80;;;;;;5074648;28;20195;-87
2022/11/13 04:28:29;;;;;;;38.47;26.50;;;3.20;93.90;;;;;;5073494;28;20229;-87
2022/11/13 04:30:55;;;;;;;39.50;24.30;;;3.30;94.00;;;;;;5074598;28;20182;-87
2022/11/13 04:33:21;;;;;;;37.60;25.93;;;3.30;94.00;;;;;;5073409;28;20649;-87
2022/11/13 04:35:47;;;;;;;43.07;27.13;;;3.40;94.00;;;;;;5073304;28;20199;-87
2022/11/13 04:38:13;;;;;;;40.70;26.40;;;3.40;94.10;;;;;;5074334;28;20221;-87
2022/11/13 04:40:39;;;;;;;47.40;26.67;;;3.40;94.10;;;;;;5073127;28;20175;-87
2022/11/13 04:43:04;;;;;;;39.50;26.03;;;3.40;94.10;;;;;;5074446;28;20179;-87
2022/11/13 04:45:30;;;;;;;33.80;24.53;;;3.40;94.10;;;;;;5073066;28;20282;-87
2022/11/13 04:47:56;;;;;;;34.63;23.50;;;3.40;94.20;;;;;;5074205;28;20175;-88
2022/11/13 04:50:22;;;;;;;38.20;25.60;;;3.30;94.00;;;;;;5073036;28;20179;-87
2022/11/13 04:52:47;;;;;;;35.43;24.20;;;3.20;94.10;;;;;;5074228;28;20171;-88
2022/11/13 04:55:13;;;;;;;35.43;23.83;;;3.20;94.10;;;;;;5072982;28;20218;-87
2022/11/13 04:57:39;;;;;;;32.67;24.33;;;3.20;94.10;;;;;;5074044;28;20298;-88
2022/11/13 05:00:06;;;;;;;35.33;24.87;;;3.30;94.20;;;;;;5072814;28;20263;-87
2022/11/13 05:02:32;;;;;;;36.47;25.33;;;3.40;94.30;;;;;;5073025;28;20182;-87
2022/11/13 05:04:58;;;;;;;38.03;26.43;;;3.60;94.40;;;;;;5072659;28;20576;-88
2022/11/13 05:07:25;;;;;;;43.03;28.17;;;3.80;94.50;;;;;;5072741;28;20210;-87
2022/11/13 05:09:50;;;;;;;40.93;27.33;;;3.90;94.40;;;;;;5072622;28;20185;-87
2022/11/13 05:12:16;;;;;;;39.70;26.90;;;3.90;94.50;;;;;;5073789;28;20525;-87
2022/11/13 05:14:42;;;;;;;48.73;29.00;;;4.10;94.50;;;;;;5073927;28;20201;-88
2022/11/13 05:17:10;;;;;;;42.27;27.77;;;4.20;94.60;;;;;;5072640;28;20175;-87
2022/11/13 05:19:35;;;;;;;42.50;28.00;;;4.20;94.60;;;;;;5072501;28;20180;-87
2022/11/13 05:22:01;;;;;;;39.90;28.30;;;4.20;94.60;;;;;;5072771;28;20203;-87
2022/11/13 05:24:27;;;;;;;44.57;29.23;;;4.20;94.60;;;;;;5072321;28;20196;-87
2022/11/13 05:26:52;;;;;;;36.67;26.50;;;4.20;94.60;;;;;;5072361;28;20210;-88
2022/11/13 05:29:19;;;;;;;47.27;27.03;;;4.20;94.60;;;;;;5072025;28;20222;-87
2022/11/13 05:31:45;;;;;;;39.10;26.23;;;4.10;94.60;;;;;;5072411;28;20599;-87
2022/11/13 05:34:11;;;;;;;41.73;28.87;;;4.10;94.60;;;;;;5072252;28;20183;-87
2022/11/13 05:36:36;;;;;;;50.50;28.80;;;4.10;94.60;;;;;;5072261;28;20555;-87
2022/11/13 05:39:02;;;;;;;39.33;27.73;;;4.10;94.60;;;;;;5072117;28;20199;-87
2022/11/13 05:41:28;;;;;;;42.33;28.20;;;4.00;94.60;;;;;;5072385;28;20667;-88
2022/11/13 05:43:53;;;;;;;43.10;27.37;;;3.90;94.60;;;;;;5073539;28;20172;-87
2022/11/13 05:46:21;;;;;;;42.23;27.07;;;3.90;94.60;;;;;;5073373;28;20199;-88
2022/11/13 05:48:52;;;;;;;37.37;26.03;;;3.80;94.60;;;;;;5073279;28;20541;-88
2022/11/13 05:51:21;;;;;;;41.47;26.73;;;3.80;94.60;;;;;;5073377;28;20225;-87
2022/11/13 05:53:47;;;;;;;36.83;26.13;;;3.70;94.60;;;;;;5072020;28;20190;-87
2022/11/13 05:56:16;;;;;;;40.10;26.50;;;3.70;94.60;;;;;;5073500;28;20218;-88
2022/11/13 05:58:42;;;;;;;45.00;27.67;;;3.70;94.60;;;;;;5071862;28;20611;-87
2022/11/13 06:01:20;;;;;;;41.73;27.00;;;3.70;94.60;;;;;;5072031;28;20209;-87
2022/11/13 06:03:46;;;;;;;42.60;26.60;;;3.70;94.60;;;;;;5071995;28;20222;-87
2022/11/13 06:06:16;;;;;;;36.37;26.67;;;3.70;94.70;;;;;;5071980;28;20241;-87
2022/11/13 06:08:42;;;;;;;34.17;24.73;;;3.60;94.60;;;;;;5072310;28;20218;-87
2022/11/13 06:11:10;;;;;;;34.20;24.67;;;3.50;94.50;;;;;;5073168;28;20176;-87
2022/11/13 06:13:37;;;;;;;37.60;24.93;;;3.40;94.50;;;;;;5071929;28;20175;-88
2022/11/13 06:16:24;;;;;;;36.87;25.40;;;3.30;94.50;;;;;;5071804;28;20202;-88
2022/11/13 06:18:53;;;;;;;37.37;23.97;;;3.30;94.50;;;;;;5072076;28;20213;-88
2022/11/13 06:21:20;;;;;;;39.60;25.27;;;3.20;94.50;;;;;;5071835;28;20606;-88
2022/11/13 06:23:47;;;;;;;35.73;25.53;;;3.20;94.50;;;;;;5071849;28;20228;-87
2022/11/13 06:26:16;;;;;;;40.97;26.87;;;3.30;94.60;;;;;;5071736;28;20195;-88
2022/11/13 06:28:42;;;;;;;38.87;26.73;;;3.30;94.60;;;;;;5071676;28;20187;-88
2022/11/13 06:31:13;;;;;;;41.00;26.50;;;3.40;94.60;;;;;;5072956;28;20213;-88
2022/11/13 06:33:40;;;;;;;36.33;26.27;;;3.50;94.60;;;;;;5071715;28;20172;-87
2022/11/13 06:36:10;;;;;;;37.27;26.67;;;3.50;94.60;;;;;;5071549;28;20199;-87
2022/11/13 06:38:37;;;;;;;39.60;26.80;;;3.50;94.60;;;;;;5072742;28;20748;-87
2022/11/13 06:41:03;;;;;;;39.87;27.43;;;3.40;94.60;;;;;;5074474;28;20175;-87
2022/11/13 06:43:29;;;;;;;36.80;24.70;;;3.50;94.60;;;;;;5076646;28;20167;-88
2022/11/13 06:45:56;;;;;;;38.73;26.27;;;3.40;94.60;;;;;;5076439;28;20206;-88
2022/11/13 06:48:22;;;;;;;43.07;27.37;;;3.30;94.50;;;;;;5075290;28;20232;-87
2022/11/13 06:50:48;;;;;;;35.03;26.00;;;3.30;94.50;;;;;;5075808;28;20190;-88
2022/11/13 06:53:14;;;;;;;37.77;26.27;;;3.30;94.60;;;;;;5075353;28;20175;-86
2022/11/13 06:55:48;;;;;;;41.73;24.90;;;3.30;94.60;;;;;;5076640;28;20205;-87
2022/11/13 06:58:14;;;;;;;36.63;25.17;;;3.30;94.60;;;;;;5075014;28;20596;-86
2022/11/13 07:00:42;;;;;;;43.90;27.13;;;3.30;94.60;;;;;;5075153;28;20550;-86
2022/11/13 07:03:24;;;;;;;36.57;26.57;;;3.30;94.60;;;;;;5075192;28;20598;-86
2022/11/13 07:05:50;;;;;;;44.13;28.93;;;3.30;94.60;;;;;;5075661;28;20677;-86
2022/11/13 07:08:16;;;;;;;44.37;28.93;;;3.30;94.70;;;;;;5078085;28;20179;-86
2022/11/13 07:10:42;;;;;;;50.27;30.40;;;3.40;94.70;;;;;;5075070;28;20676;-88
2022/11/13 07:13:08;;;;;;;45.30;28.07;;;3.50;94.80;;;;;;5074865;28;20214;-88
2022/11/13 07:15:38;;;;;;;47.93;29.60;;;3.50;94.70;;;;;;5074831;28;20203;-88
2022/11/13 07:18:05;;;;;;;45.73;29.60;;;3.50;94.70;;;;;;5074800;28;20286;-87
2022/11/13 07:20:32;;;;;;;43.43;28.30;;;3.50;94.80;;;;;;5075994;28;20556;-87
2022/11/13 07:22:59;;;;;;;47.63;29.10;;;3.60;94.80;;;;;;5074769;28;20188;-88
2022/11/13 07:25:26;;;;;;;42.73;29.37;;;3.60;94.80;;;;;;5074620;28;20291;-88
2022/11/13 07:27:52;;;;;;;46.57;29.70;;;3.60;94.80;;;;;;5075835;28;20187;-87
2022/11/13 07:30:17;;;;;;;39.60;27.60;;;3.60;94.80;;;;;;5074726;28;20179;-88
2022/11/13 07:32:43;;;;;;;41.57;28.53;;;3.60;94.80;;;;;;5075737;28;20180;-87
2022/11/13 07:35:09;;;;;;;41.17;28.60;;;3.70;94.80;;;;;;5074387;28;20248;-87
2022/11/13 07:37:34;;;;;;;43.27;28.00;;;3.70;94.90;;;;;;5075763;28;20340;-87
2022/11/13 07:40:00;;;;;;;46.57;29.37;;;3.70;94.90;;;;;;5074677;28;20258;-87
2022/11/13 07:42:26;;;;;;;43.47;30.20;;;3.80;94.90;;;;;;5074367;28;20171;-88
2022/11/13 07:44:51;;;;;;;43.63;30.17;;;3.80;94.90;;;;;;5074302;28;20199;-87
2022/11/13 07:47:17;;;;;;;49.60;31.27;;;3.90;95.00;;;;;;5074522;28;20183;-88
2022/11/13 07:49:42;;;;;;;51.83;30.90;;;4.10;95.00;;;;;;5075656;28;20623;-87
2022/11/13 07:52:08;;;;;;;50.03;32.67;;;4.30;95.10;;;;;;5073798;28;20540;-87
2022/11/13 07:54:33;;;;;;;47.93;32.37;;;4.40;95.10;;;;;;5073993;28;20194;-88
2022/11/13 07:56:59;;;;;;;52.20;32.53;;;4.60;95.10;;;;;;5073874;28;20190;-87
2022/11/13 07:59:24;;;;;;;47.43;32.97;;;4.70;95.20;;;;;;5074291;28;20267;-87
2022/11/13 08:01:50;;;;;;;56.03;32.60;;;4.80;95.20;;;;;;5073961;28;20708;-87
2022/11/13 08:04:15;;;;;;;53.30;32.97;;;4.90;95.20;;;;;;5073980;28;20205;-87
2022/11/13 08:06:41;;;;;;;50.83;34.60;;;5.00;95.20;;;;;;5073846;28;20178;-88
2022/11/13 08:09:07;;;;;;;51.57;31.93;;;5.10;95.20;;;;;;5073835;28;20181;-87
2022/11/13 08:11:32;;;;;;;46.47;33.10;;;5.10;95.30;;;;;;5075588;28;20253;-88
2022/11/13 08:13:58;;;;;;;53.83;33.33;;;5.20;95.30;;;;;;5074236;28;20221;-88
2022/11/13 08:16:23;;;;;;;55.90;34.07;;;5.30;95.30;;;;;;5074984;28;20332;-87
2022/11/13 08:18:50;;;;;;;56.63;35.03;;;5.40;95.30;;;;;;5073555;28;20587;-88
2022/11/13 08:21:15;;;;;;;57.00;36.70;;;5.50;95.30;;;;;;5073567;28;20172;-87
2022/11/13 08:23:41;;;;;;;55.67;33.70;;;5.60;95.40;;;;;;5073584;28;20189;-87
2022/11/13 08:26:07;;;;;;;56.10;34.07;;;5.70;95.40;;;;;;5073352;28;20244;-87
2022/11/13 08:28:34;;;;;;;53.93;34.57;;;5.80;95.40;;;;;;5074678;28;20183;-88
2022/11/13 08:31:00;;;;;;;58.80;36.20;;;5.80;95.40;;;;;;5073448;28;20195;-87
2022/11/13 08:33:25;;;;;;;52.13;33.20;;;6.00;95.40;;;;;;5073384;28;20182;-87
2022/11/13 08:35:58;;;;;;;54.60;35.27;;;6.00;95.40;;;;;;5074800;28;20208;-87
2022/11/13 08:38:24;;;;;;;56.27;33.73;;;6.10;95.40;;;;;;5073125;28;20579;-87
2022/11/13 08:40:51;;;;;;;57.63;36.33;;;6.30;95.40;;;;;;5074385;28;20182;-88
2022/11/13 08:43:17;;;;;;;54.50;34.77;;;6.30;95.40;;;;;;5073063;28;20175;-88
2022/11/13 08:45:45;;;;;;;62.90;35.40;;;6.50;95.40;;;;;;5073075;28;20198;-88
2022/11/13 08:48:10;;;;;;;61.67;34.57;;;6.60;95.50;;;;;;5073034;28;20175;-87
2022/11/13 08:50:37;;;;;;;54.50;35.13;;;6.70;95.40;;;;;;5073083;28;20699;-87
2022/11/13 08:53:02;;;;;;;53.10;34.27;;;6.80;95.40;;;;;;5074207;28;20659;-87
2022/11/13 08:55:28;;;;;;;57.43;35.90;;;6.80;95.40;;;;;;5072857;28;20249;-88
2022/11/13 08:57:58;;;;;;;55.53;37.03;;;6.90;95.40;;;;;;5072980;28;20214;-88
2022/11/13 09:00:23;;;;;;;56.27;35.73;;;7.00;95.30;;;;;;5074017;28;20202;-87
2022/11/13 09:02:57;;;;;;;60.00;35.73;;;7.10;95.30;;;;;;5072138;28;20172;-87
2022/11/13 09:05:23;;;;;;;56.07;34.80;;;7.10;95.30;;;;;;5072708;28;20203;-87
2022/11/13 09:07:49;;;;;;;59.90;34.93;;;7.20;95.20;;;;;;5073979;28;20241;-87
2022/11/13 09:10:15;;;;;;;60.80;34.70;;;7.20;95.20;;;;;;5072678;28;20587;-88
2022/11/13 09:12:41;;;;;;;55.23;34.40;;;7.20;95.10;;;;;;5072697;28;20187;-87
2022/11/13 09:15:07;;;;;;;58.60;33.13;;;7.20;95.00;;;;;;5072475;28;20214;-87
2022/11/13 09:17:32;;;;;;;47.17;28.73;;;7.20;95.00;;;;;;5072378;28;20257;-87
2022/11/13 09:19:58;;;;;;;49.33;30.60;;;7.20;94.80;;;;;;5072512;28;20171;-87
2022/11/13 09:22:23;;;;;;;47.50;27.93;;;7.00;94.70;;;;;;5072622;28;20665;-87
2022/11/13 09:24:49;;;;;;;47.93;29.20;;;7.00;94.60;;;;;;5072354;28;20195;-88
2022/11/13 09:27:14;;;;;;;49.63;28.47;;;6.90;94.50;;;;;;5072453;28;20183;-88
2022/11/13 09:29:40;;;;;;;43.93;27.37;;;6.90;94.40;;;;;;5073610;28;20181;-87
2022/11/13 09:32:05;;;;;;;43.93;27.63;;;6.80;94.30;;;;;;5073687;28;20210;-88
2022/11/13 09:34:32;;;;;;;48.70;27.80;;;6.90;94.30;;;;;;5073639;28;20248;-88
2022/11/13 09:36:58;;;;;;;41.70;27.00;;;7.00;94.30;;;;;;5072320;28;20519;-87
2022/11/13 09:39:23;;;;;;;44.80;25.97;;;7.00;94.20;;;;;;5072213;28;20233;-88
2022/11/13 09:41:56;;;;;;;53.27;31.27;;;7.00;94.10;;;;;;5072447;28;20179;-87
2022/11/13 09:44:37;;;;;;;50.30;30.83;;;7.10;94.20;;;;;;5072321;28;20616;-87
2022/11/13 09:47:25;;;;;;;42.33;25.10;;;7.20;94.10;;;;;;5073481;28;20209;-87
2022/11/13 09:50:06;;;;;;;42.57;26.67;;;7.20;94.00;;;;;;5072275;28;20592;-88
2022/11/13 09:52:34;;;;;;;42.83;26.37;;;7.20;93.90;;;;;;5073340;28;20179;-85
2022/11/13 09:55:03;;;;;;;43.63;27.13;;;7.10;93.80;;;;;;5072267;28;20214;-85
2022/11/13 09:57:50;;;;;;;47.33;29.27;;;7.10;93.80;;;;;;5072091;28;20263;-87
2022/11/13 10:00:20;;;;;;;45.17;28.63;;;7.20;93.80;;;;;;5072064;28;20217;-87
2022/11/13 10:03:23;;;;;;;45.20;27.20;;;7.20;93.70;;;;;;5072487;28;20213;-87
2022/11/13 10:06:05;;;;;;;52.83;28.47;;;7.30;93.70;;;;;;5071862;28;20265;-88
2022/11/13 10:08:54;;;;;;;40.43;23.73;;;7.30;93.60;;;;;;5073347;28;20216;-88
2022/11/13 10:11:48;;;;;;;36.70;25.07;;;7.30;93.50;;;;;;5071998;28;20167;-88
2022/11/13 10:14:28;;;;;;;39.53;24.30;;;7.30;93.40;;;;;;5072690;28;20191;-88
2022/11/13 10:17:05;;;;;;;39.23;24.07;;;7.40;93.40;;;;;;5076853;28;20269;-88
2022/11/13 10:19:39;;;;;;;46.50;27.00;;;7.40;93.40;;;;;;5076064;28;20261;-88
2022/11/13 10:22:15;;;;;;;44.40;25.77;;;7.40;93.40;;;;;;5075925;28;20608;-87
2022/11/13 10:24:43;;;;;;;44.73;28.87;;;7.40;93.40;;;;;;5077120;28;20205;-88
2022/11/13 10:27:10;;;;;;;46.40;27.77;;;7.50;93.40;;;;;;5075840;28;20176;-88
2022/11/13 10:29:37;;;;;;;45.93;27.77;;;7.70;93.50;;;;;;5076744;28;20172;-88
2022/11/13 10:32:22;;;;;;;47.83;29.47;;;7.90;93.40;;;;;;5076232;28;20269;-87
2022/11/13 10:34:56;;;;;;;45.03;28.73;;;7.90;93.40;;;;;;5076890;28;20191;-87
2022/11/13 10:37:51;;;;;;;58.53;32.90;;;8.10;93.40;;;;;;5075667;28;20548;-88
2022/11/13 10:40:32;;;;;;;56.60;31.07;;;8.10;93.30;;;;;;5073432;28;20215;-87
2022/11/13 10:43:16;;;;;;;55.30;31.17;;;8.00;93.20;;;;;;5076429;28;20202;-88
2022/11/13 10:45:52;;;;;;;45.53;29.20;;;7.90;93.10;;;;;;5075432;28;20199;-87
2022/11/13 10:48:20;;;;;;;48.20;29.23;;;7.80;93.10;;;;;;5075539;28;20175;-88
2022/11/13 10:50:53;;;;;;;50.00;27.17;;;7.80;93.10;;;;;;5076687;28;20206;-88
2022/11/13 10:53:19;;;;;;;53.30;29.60;;;7.80;93.10;;;;;;5075585;28;20262;-88
2022/11/13 10:55:49;;;;;;;51.33;28.33;;;7.80;93.20;;;;;;5075238;28;20245;-88
2022/11/13 10:58:16;;;;;;;50.27;29.50;;;7.80;93.20;;;;;;5075110;28;20211;-88
2022/11/13 11:00:46;;;;;;;52.07;30.63;;;7.70;93.10;;;;;;5075478;28;20543;-88
2022/11/13 11:03:47;;;;;;;50.43;30.77;;;7.70;93.10;;;;;;5076453;28;20178;-88
2022/11/13 11:06:12;;;;;;;48.47;26.87;;;7.80;93.20;;;;;;5074907;28;20199;-89
2022/11/13 11:08:38;;;;;;;46.97;28.37;;;7.90;93.30;;;;;;5075068;28;20188;-88
2022/11/13 11:14:24;;;;;;;54.67;32.30;;;8.10;93.20;;;;;;5076487;28;20202;-86
2022/11/13 11:16:51;;;;;;;46.83;29.73;;;8.20;93.20;;;;;;5076163;28;20199;-87
2022/11/13 11:19:23;;;;;;;51.40;33.00;;;8.20;93.10;;;;;;5074853;28;20203;-87
2022/11/13 11:21:52;;;;;;;49.97;31.77;;;8.30;93.10;;;;;;5074852;28;20544;-87
2022/11/13 11:24:27;;;;;;;60.30;33.37;;;8.30;93.00;;;;;;5074764;28;20677;-87
2022/11/13 11:27:21;;;;;;;51.47;33.83;;;8.30;93.00;;;;;;5074180;28;20167;-87
2022/11/13 11:30:13;;;;;;;49.60;31.50;;;8.40;92.90;;;;;;5074671;28;20660;-87
2022/11/13 11:32:55;;;;;;;48.30;31.30;;;8.50;92.90;;;;;;5074138;28;20671;-87
2022/11/13 11:35:37;;;;;;;47.73;30.73;;;8.50;92.80;;;;;;5075004;28;20199;-87
2022/11/13 11:38:45;;;;;;;45.47;29.23;;;8.60;92.70;;;;;;5074716;28;20604;-87
2022/11/13 11:41:16;;;;;;;44.63;29.93;;;8.60;92.60;;;;;;5071389;28;20191;-87
2022/11/13 11:44:03;;;;;;;46.77;32.23;;;8.50;92.50;;;;;;5074340;28;20179;-87
2022/11/13 11:46:29;;;;;;;44.23;28.33;;;8.50;92.50;;;;;;5075165;28;20163;-86
2022/11/13 11:48:59;;;;;;;43.70;26.60;;;8.50;92.50;;;;;;5075837;28;20186;-86
2022/11/13 11:51:34;;;;;;;35.97;24.40;;;8.40;92.30;;;;;;5075909;28;20210;-88
2022/11/13 11:54:11;;;;;;;36.00;25.07;;;8.40;92.20;;;;;;5075435;28;20155;-87
2022/11/13 11:56:49;;;;;;;42.07;25.83;;;8.30;92.10;;;;;;5074105;28;20170;-86
2022/11/13 11:59:41;;;;;;;39.03;24.17;;;8.20;92.00;;;;;;5075318;28;20218;-87
2022/11/13 12:02:38;;;;;;;38.13;26.10;;;8.20;92.10;;;;;;5074195;28;20164;-87
2022/11/13 12:05:13;;;;;;;37.73;24.93;;;8.10;92.20;;;;;;5075209;28;20700;-87
2022/11/13 12:07:57;;;;;;;38.47;25.47;;;8.20;92.30;;;;;;5074068;28;20183;-87
2022/11/13 12:10:59;;;;;;;37.13;24.70;;;8.30;92.40;;;;;;5073959;28;20217;-87
2022/11/13 12:13:31;;;;;;;42.40;26.73;;;8.20;92.30;;;;;;5073920;28;20649;-87
2022/11/13 12:16:26;;;;;;;45.07;27.97;;;8.30;92.40;;;;;;5073710;28;20668;-87
2022/11/13 12:18:57;;;;;;;37.60;25.37;;;8.30;92.30;;;;;;5073794;28;20303;-87
2022/11/13 12:21:34;;;;;;;37.23;24.90;;;8.30;92.30;;;;;;5074532;28;20164;-87
2022/11/13 12:24:13;;;;;;;36.80;26.00;;;8.40;92.30;;;;;;5078017;28;20186;-88
2022/11/13 12:26:54;;;;;;;41.50;25.73;;;8.40;92.10;;;;;;5078220;28;20202;-88
2022/11/13 12:29:39;;;;;;;37.03;25.03;;;8.40;92.10;;;;;;5075654;28;20171;-87
2022/11/13 12:32:36;;;;;;;37.43;22.40;;;8.50;92.00;;;;;;5075293;28;20653;-88
2022/11/13 12:35:12;;;;;;;34.33;22.77;;;8.40;91.80;;;;;;5076211;28;20195;-87
2022/11/13 12:37:47;;;;;;;31.17;20.83;;;8.30;91.70;;;;;;5079006;28;20336;-88
2022/11/13 12:40:49;;;;;;;31.33;22.10;;;8.30;91.60;;;;;;5076517;28;20182;-88
2022/11/13 12:43:30;;;;;;;39.37;24.97;;;8.20;91.40;;;;;;5076868;28;20163;-88
2022/11/13 12:46:02;;;;;;;35.97;25.73;;;8.20;91.50;;;;;;5074381;28;20195;-88
2022/11/13 12:48:43;;;;;;;36.57;23.17;;;8.30;91.70;;;;;;5076630;28;20628;-88
2022/11/13 12:51:14;;;;;;;36.37;23.60;;;8.30;91.60;;;;;;5073915;28;20633;-87